Time;durP1;ratioP1;P1;durP2;ratioP2;P2;SDS_P1;SDS_P2;PMS_P1;PMS_P2;Temp;Humidity;BMP_temperature;BMP_pressure;BME280_temperature;BME280_humidity;BME280_pressure;Samples;Min_cycle;Max_cycle;Signal;HPM_P1;HPM_P2
2022/05/21 00:01:19;;;;;;;45.63;21.35;;;;;;;9.86;96.58;101864.22;5092598;28;20437;-44
2022/05/21 00:03:44;;;;;;;49.30;21.35;;;;;;;9.87;96.30;101860.81;5093041;28;20035;-46
2022/05/21 00:06:10;;;;;;;49.20;21.30;;;;;;;9.90;96.50;101867.81;5093001;28;20028;-45
2022/05/21 00:08:35;;;;;;;47.00;20.55;;;;;;;9.94;96.18;101866.28;5092651;28;20104;-45
2022/05/21 00:11:00;;;;;;;49.13;20.35;;;;;;;9.96;95.98;101869.81;5093002;28;20061;-48
2022/05/21 00:13:25;;;;;;;45.92;21.73;;;;;;;9.97;95.90;101863.88;5092754;28;20024;-47
2022/05/21 00:15:51;;;;;;;46.90;21.20;;;;;;;10.01;95.72;101873.50;5092192;28;20490;-46
2022/05/21 00:18:16;;;;;;;44.08;19.30;;;;;;;10.02;95.69;101873.56;5092985;28;20032;-46
2022/05/21 00:20:47;;;;;;;39.38;18.88;;;;;;;10.06;95.25;101869.47;5092741;28;20073;-45
2022/05/21 00:23:19;;;;;;;48.33;18.38;;;;;;;10.09;95.19;101863.56;5092409;28;20032;-47
2022/05/21 00:25:46;;;;;;;40.10;17.33;;;;;;;10.09;94.53;101868.72;5092944;28;20035;-48
2022/05/21 00:28:11;;;;;;;40.95;16.65;;;;;;;10.10;94.53;101862.78;5093105;28;20031;-46
2022/05/21 00:30:37;;;;;;;35.17;16.80;;;;;;;10.08;94.60;101869.53;5092259;28;20109;-44
2022/05/21 00:33:03;;;;;;;40.80;17.42;;;;;;;10.05;94.92;101863.41;5092707;28;20035;-48
2022/05/21 00:35:28;;;;;;;38.95;16.77;;;;;;;10.04;94.48;101874.53;5092939;28;20077;-45
2022/05/21 00:37:54;;;;;;;39.42;16.52;;;;;;;10.05;94.59;101865.09;5091988;28;20024;-45
2022/05/21 00:40:21;;;;;;;35.15;15.07;;;;;;;10.06;94.47;101872.03;5092894;28;20513;-45
2022/05/21 00:42:46;;;;;;;38.85;15.77;;;;;;;10.10;94.54;101879.09;5092514;28;20025;-43
2022/05/21 00:45:13;;;;;;;39.20;15.73;;;;;;;10.15;94.31;101876.75;5092020;28;20026;-46
2022/05/21 00:47:38;;;;;;;38.00;15.02;;;;;;;10.17;93.88;101865.72;5092532;28;20024;-47
2022/05/21 00:50:05;;;;;;;40.83;15.15;;;;;;;10.20;94.01;101873.56;5091964;28;20356;-43
2022/05/21 00:52:34;;;;;;;32.55;14.43;;;;;;;10.23;93.84;101874.53;5092460;28;20044;-43
2022/05/21 00:55:04;;;;;;;37.35;15.40;;;;;;;10.26;93.66;101879.81;5092492;28;20028;-45
2022/05/21 00:57:35;;;;;;;39.10;14.63;;;;;;;10.28;93.69;101884.25;5091994;28;20020;-47
2022/05/21 01:00:14;;;;;;;35.05;14.40;;;;;;;10.29;93.53;101879.97;5092393;28;20069;-43
2022/05/21 01:02:47;;;;;;;43.42;14.07;;;;;;;10.33;93.32;101880.19;5092711;28;20055;-43
2022/05/21 01:05:15;;;;;;;30.25;12.52;;;;;;;10.35;93.19;101875.09;5092029;28;20028;-43
2022/05/21 01:07:44;;;;;;;32.17;13.80;;;;;;;10.37;92.54;101869.25;5092443;28;20024;-48
2022/05/21 01:10:11;;;;;;;30.45;12.38;;;;;;;10.39;92.94;101871.88;5092563;28;20060;-45
2022/05/21 01:12:40;;;;;;;29.05;11.95;;;;;;;10.42;92.61;101877.19;5091773;28;20077;-45
2022/05/21 01:15:10;;;;;;;27.52;11.82;;;;;;;10.43;92.70;101868.66;5092220;28;20469;-47
2022/05/21 01:17:36;;;;;;;27.45;11.38;;;;;;;10.45;92.27;101867.03;5092770;28;20036;-46
2022/05/21 01:20:15;;;;;;;26.60;10.88;;;;;;;10.47;92.02;101867.09;5091644;28;20028;-44
2022/05/21 01:22:45;;;;;;;26.75;10.75;;;;;;;10.48;92.10;101867.19;5092339;28;20471;-43
2022/05/21 01:25:12;;;;;;;25.70;10.00;;;;;;;10.50;91.94;101872.41;5094776;28;20049;-44
2022/05/21 01:27:38;;;;;;;25.73;10.07;;;;;;;10.50;92.00;101870.69;5095940;28;20554;-43
2022/05/21 01:30:06;;;;;;;25.30;9.90;;;;;;;10.52;91.86;101874.25;5096138;28;20103;-44
2022/05/21 01:32:31;;;;;;;;;;;;;;;10.57;92.06;101860.69;5095766;28;20032;-44
2022/05/21 01:34:56;;;;;;;32.93;10.07;;;;;;;10.53;91.56;101865.69;5095701;28;19920;-47
2022/05/21 01:37:22;;;;;;;27.73;10.48;;;;;;;10.53;91.92;101857.97;5095877;28;20032;-48
2022/05/21 01:39:48;;;;;;;24.30;9.02;;;;;;;10.53;91.86;101869.97;5094800;28;20042;-44
2022/05/21 01:42:13;;;;;;;25.05;9.05;;;;;;;10.53;92.15;101857.97;5095818;28;20031;-44
2022/05/21 01:44:38;;;;;;;24.75;9.23;;;;;;;10.54;91.68;101857.13;5095809;28;20085;-43
2022/05/21 01:47:09;;;;;;;24.92;9.18;;;;;;;10.54;91.86;101859.72;5094984;28;20365;-42
2022/05/21 01:49:34;;;;;;;24.25;9.15;;;;;;;10.56;92.02;101858.91;5095779;28;20032;-47
2022/05/21 01:52:01;;;;;;;30.83;9.98;;;;;;;10.56;91.69;101864.06;5095203;28;20035;-44
2022/05/21 01:54:26;;;;;;;32.60;11.10;;;;;;;10.57;91.90;101860.69;5094734;28;20032;-46
2022/05/21 01:56:52;;;;;;;31.15;10.70;;;;;;;10.58;91.90;101854.72;5095474;28;20031;-45
2022/05/21 01:59:17;;;;;;;35.60;10.88;;;;;;;10.58;91.85;101862.44;5095396;28;20024;-47
2022/05/21 02:01:42;;;;;;;30.52;11.02;;;;;;;10.59;92.13;101859.03;5094552;28;20471;-43
2022/05/21 02:04:07;;;;;;;28.25;11.38;;;;;;;10.59;91.87;101859.03;5095402;28;20028;-43
2022/05/21 02:06:33;;;;;;;38.25;12.15;;;;;;;10.60;92.25;101855.66;5095458;28;20471;-43
2022/05/21 02:08:58;;;;;;;38.28;12.57;;;;;;;10.61;92.16;101862.56;5094270;28;20028;-43
2022/05/21 02:11:24;;;;;;;32.35;13.27;;;;;;;10.63;91.96;101860.97;5095457;28;20028;-43
2022/05/21 02:13:49;;;;;;;32.50;11.50;;;;;;;10.63;92.14;101860.97;5094780;28;20035;-43
2022/05/21 02:16:14;;;;;;;34.38;13.73;;;;;;;10.63;92.00;101872.16;5094605;28;20024;-47
2022/05/21 02:18:39;;;;;;;37.78;13.80;;;;;;;10.65;92.21;101865.38;5094872;28;20055;-45
2022/05/21 02:21:07;;;;;;;34.55;13.38;;;;;;;10.67;92.38;101868.03;5095322;28;20438;-44
2022/05/21 02:23:33;;;;;;;37.25;13.52;;;;;;;10.68;92.32;101877.53;5094283;28;20047;-47
2022/05/21 02:26:02;;;;;;;39.65;13.55;;;;;;;10.69;91.91;101872.44;5094863;28;20467;-43
2022/05/21 02:28:28;;;;;;;45.67;14.88;;;;;;;10.69;92.05;101881.84;5094111;28;20372;-43
2022/05/21 02:30:54;;;;;;;32.90;13.55;;;;;;;10.70;92.47;101871.63;5094728;28;20023;-43
2022/05/21 02:33:19;;;;;;;43.97;14.82;;;;;;;10.72;91.89;101869.09;5095032;28;20036;-49
2022/05/21 02:35:44;;;;;;;36.35;14.57;;;;;;;10.71;91.81;101865.63;5092966;28;20032;-43
2022/05/21 02:40:54;;;;;;;34.30;14.02;;;;;;;10.74;92.45;101859.72;5094694;28;20089;-44
2022/05/21 02:43:20;;;;;;;34.85;14.48;;;;;;;10.74;91.87;101864.88;5094010;28;20409;-44
2022/05/21 02:45:45;;;;;;;42.45;14.50;;;;;;;10.75;92.11;101861.50;5094432;28;20102;-44
2022/05/21 02:48:10;;;;;;;44.22;14.18;;;;;;;10.75;91.93;101856.34;5094511;28;20020;-47
2022/05/21 02:50:36;;;;;;;42.30;14.60;;;;;;;10.76;92.04;101871.00;5093707;28;20434;-46
2022/05/21 02:53:04;;;;;;;39.42;14.50;;;;;;;10.75;92.03;101866.66;5094073;28;20048;-47
2022/05/21 02:55:29;;;;;;;40.65;15.02;;;;;;;10.78;92.28;101871.06;5094441;28;20028;-47
2022/05/21 02:57:55;;;;;;;42.65;13.57;;;;;;;10.78;92.08;101871.06;5093410;28;20097;-46
2022/05/21 03:00:27;;;;;;;50.42;14.80;;;;;;;10.80;92.32;101874.63;5094436;28;20020;-45
2022/05/21 03:02:54;;;;;;;48.58;14.32;;;;;;;10.81;92.32;101876.38;5094112;28;20028;-45
2022/05/21 03:05:20;;;;;;;40.72;14.75;;;;;;;10.80;92.19;101870.31;5093361;28;20479;-44
2022/05/21 03:07:48;;;;;;;45.60;15.05;;;;;;;10.79;92.14;101873.72;5094031;28;20020;-42
2022/05/21 03:10:22;;;;;;;37.60;13.95;;;;;;;10.80;92.22;101879.78;5094248;28;20050;-43
2022/05/21 03:12:54;;;;;;;40.50;15.93;;;;;;;10.80;92.28;101872.91;5093070;28;20499;-44
2022/05/21 03:15:22;;;;;;;40.15;12.90;;;;;;;10.79;92.12;101868.56;5094115;28;20137;-41
2022/05/21 03:17:48;;;;;;;35.47;13.20;;;;;;;10.80;92.59;101878.06;5093063;28;20081;-44
2022/05/21 03:20:15;;;;;;;46.03;13.85;;;;;;;10.79;92.38;101863.41;5094051;28;20371;-42
2022/05/21 03:22:41;;;;;;;;;;;;;;;10.85;91.94;101861.09;5094356;28;20020;-45
2022/05/21 03:25:07;;;;;;;40.88;14.05;;;;;;;10.81;92.40;101866.94;5093185;28;20275;-47
2022/05/21 03:27:33;;;;;;;38.10;14.23;;;;;;;10.82;93.19;101868.72;5093864;28;20091;-43
2022/05/21 03:29:58;;;;;;;39.00;15.32;;;;;;;10.82;92.85;101862.66;5093478;28;20120;-42
2022/05/21 03:32:23;;;;;;;39.17;15.80;;;;;;;10.81;92.47;101866.06;5092830;28;20478;-44
2022/05/21 03:34:49;;;;;;;41.35;15.18;;;;;;;10.81;92.71;101866.94;5093296;28;20044;-42
2022/05/21 03:37:14;;;;;;;46.60;14.77;;;;;;;10.82;92.75;101863.56;5093632;28;20031;-43
2022/05/21 03:39:39;;;;;;;43.13;14.95;;;;;;;10.82;92.72;101875.53;5092730;28;20032;-45
2022/05/21 03:42:05;;;;;;;41.17;15.30;;;;;;;10.81;93.11;101872.09;5093702;28;20024;-43
2022/05/21 03:44:31;;;;;;;43.33;15.68;;;;;;;10.81;92.52;101876.38;5093459;28;20028;-46
2022/05/21 03:46:58;;;;;;;50.60;16.35;;;;;;;10.81;93.03;101877.25;5091758;28;20058;-46
2022/05/21 03:49:24;;;;;;;47.85;15.85;;;;;;;10.82;93.05;101879.03;5093364;28;20031;-40
2022/05/21 03:51:50;;;;;;;56.20;16.55;;;;;;;10.80;92.90;101872.03;5093232;28;20031;-40
2022/05/21 03:54:15;;;;;;;51.38;16.25;;;;;;;10.80;93.03;101875.47;5092661;28;20115;-40
2022/05/21 03:56:40;;;;;;;45.22;16.85;;;;;;;10.78;93.02;101882.28;5093091;28;20032;-45
2022/05/21 03:59:05;;;;;;;56.17;18.10;;;;;;;10.78;93.31;101877.13;5093181;28;20043;-40
2022/05/21 04:01:31;;;;;;;53.90;16.75;;;;;;;10.77;93.31;101882.19;5092338;28;20024;-43
2022/05/21 04:03:56;;;;;;;60.17;17.27;;;;;;;10.80;93.54;101880.66;5093067;28;20461;-45
2022/05/21 04:06:22;;;;;;;53.08;17.75;;;;;;;10.78;93.42;101887.44;5093230;28;20069;-46
2022/05/21 04:08:49;;;;;;;44.33;17.17;;;;;;;10.79;93.27;101884.03;5092124;28;20047;-43
2022/05/21 04:11:15;;;;;;;46.58;17.15;;;;;;;10.81;93.43;101891.84;5093504;28;20031;-41
2022/05/21 04:13:40;;;;;;;50.22;17.35;;;;;;;10.82;93.64;101894.50;5092892;28;20024;-46
2022/05/21 04:16:05;;;;;;;47.33;17.05;;;;;;;10.82;93.25;101898.75;5091974;28;20028;-43
2022/05/21 04:18:30;;;;;;;54.58;19.02;;;;;;;10.81;93.24;101892.72;5093271;28;20024;-43
2022/05/21 04:20:56;;;;;;;50.80;17.48;;;;;;;10.82;93.37;101899.66;5092162;28;20133;-40
2022/05/21 04:23:21;;;;;;;49.03;18.20;;;;;;;10.83;93.67;101898.84;5092798;28;20483;-44
2022/05/21 04:25:47;;;;;;;51.40;18.98;;;;;;;10.84;93.47;101898.00;5092743;28;20028;-41
2022/05/21 04:28:12;;;;;;;52.53;17.75;;;;;;;10.86;93.60;101898.97;5092197;28;20081;-45
2022/05/21 04:30:38;;;;;;;61.55;19.63;;;;;;;10.89;93.36;101907.69;5092641;28;20024;-42
2022/05/21 04:33:03;;;;;;;51.33;18.50;;;;;;;10.90;93.19;101907.75;5092956;28;20028;-40
2022/05/21 04:36:17;;;;;;;46.15;17.10;;;;;;;10.93;93.36;101912.16;5092175;28;20028;-45
2022/05/21 04:38:15;;;;;;;63.80;17.90;;;;;;;10.95;93.40;101915.66;5092784;28;20071;-41
2022/05/21 04:40:41;;;;;;;55.05;18.48;;;;;;;10.96;93.20;101908.03;5092810;28;20024;-42
2022/05/21 04:43:06;;;;;;;54.95;17.92;;;;;;;11.01;93.12;101921.13;5091884;28;20017;-46
2022/05/21 04:45:32;;;;;;;52.25;18.30;;;;;;;11.03;93.15;101914.34;5092924;28;20024;-44
2022/05/21 04:47:57;;;;;;;56.25;19.50;;;;;;;11.03;92.77;101914.34;5092412;28;20043;-43
2022/05/21 04:50:22;;;;;;;65.32;18.08;;;;;;;11.04;92.84;101916.13;5092026;28;20032;-46
2022/05/21 04:52:48;;;;;;;48.95;17.77;;;;;;;11.06;92.89;101914.47;5092321;28;20047;-44
2022/05/21 04:55:13;;;;;;;55.72;18.67;;;;;;;11.08;93.31;101918.00;5092556;28;20040;-45
2022/05/21 04:57:38;;;;;;;57.22;17.70;;;;;;;11.09;92.88;101919.78;5091656;28;20525;-44
2022/05/21 05:00:06;;;;;;;55.53;18.77;;;;;;;11.11;92.71;101928.44;5095691;28;20077;-41
2022/05/21 05:02:31;;;;;;;53.97;18.75;;;;;;;11.13;92.66;101920.78;5096813;28;20039;-44
2022/05/21 05:04:57;;;;;;;52.97;19.73;;;;;;;11.13;92.78;101926.84;5095506;28;20103;-42
2022/05/21 05:07:23;;;;;;;71.35;18.77;;;;;;;11.20;92.74;101923.69;5096658;28;20036;-41
2022/05/21 05:09:49;;;;;;;60.65;20.88;;;;;;;11.22;92.83;101921.22;5096198;28;20031;-40
2022/05/21 05:12:16;;;;;;;57.45;20.33;;;;;;;11.23;92.52;101927.25;5095466;28;20402;-42
2022/05/21 05:14:41;;;;;;;55.63;20.52;;;;;;;11.23;92.53;101924.66;5096408;28;20028;-41
2022/05/21 05:17:06;;;;;;;64.88;22.88;;;;;;;11.27;92.61;101931.72;5096415;28;20086;-40
2022/05/21 05:19:33;;;;;;;65.82;21.05;;;;;;;11.29;92.35;101933.53;5095600;28;20024;-40
2022/05/21 05:21:59;;;;;;;70.30;23.23;;;;;;;11.32;92.40;101941.44;5096036;28;20035;-42
2022/05/21 05:24:24;;;;;;;68.60;22.08;;;;;;;11.32;92.15;101941.44;5095320;28;20028;-43
2022/05/21 05:26:49;;;;;;;62.05;22.90;;;;;;;11.35;92.31;101948.44;5095965;28;20036;-42
2022/05/21 05:29:15;;;;;;;60.50;23.33;;;;;;;11.37;92.38;101957.13;5096042;28;20459;-42
2022/05/21 05:31:40;;;;;;;72.80;22.30;;;;;;;11.37;92.20;101949.38;5095046;28;20103;-43
2022/05/21 05:34:06;;;;;;;64.85;21.42;;;;;;;11.40;92.02;101946.94;5095918;28;20119;-42
2022/05/21 05:36:31;;;;;;;65.32;22.15;;;;;;;11.40;91.66;101954.69;5095958;28;20052;-45
2022/05/21 05:39:02;;;;;;;56.25;20.17;;;;;;;11.46;92.42;101956.63;5094960;28;20028;-44
2022/05/21 05:41:27;;;;;;;64.40;22.13;;;;;;;11.51;92.22;101956.00;5095803;28;20032;-43
2022/05/21 05:43:54;;;;;;;64.40;21.50;;;;;;;11.52;91.72;101965.53;5095698;28;20039;-41
2022/05/21 05:46:20;;;;;;;58.85;20.95;;;;;;;11.57;91.63;101964.84;5094911;28;20455;-40
2022/05/21 05:48:45;;;;;;;63.47;21.60;;;;;;;11.60;91.39;101965.00;5095490;28;20127;-42
2022/05/21 05:51:10;;;;;;;64.97;23.60;;;;;;;11.68;91.33;101953.28;5095550;28;20111;-41
2022/05/21 05:53:36;;;;;;;66.45;23.70;;;;;;;11.75;91.09;101964.75;5094738;28;20506;-41
2022/05/21 05:56:01;;;;;;;73.72;24.17;;;;;;;11.81;90.78;101962.44;5095309;28;20028;-43
2022/05/21 06:01:10;;;;;;;72.30;24.83;;;;;;;12.00;90.48;101962.41;5095036;28;20092;-45
2022/05/21 06:03:36;;;;;;;70.95;24.58;;;;;;;12.02;89.95;101965.97;5095369;28;20110;-41
2022/05/21 06:06:03;;;;;;;70.55;24.95;;;;;;;12.05;90.15;101965.22;5095227;28;20032;-42
2022/05/21 06:08:29;;;;;;;65.03;23.27;;;;;;;12.06;90.26;101951.47;5094467;28;20035;-40
2022/05/21 06:10:54;;;;;;;77.32;26.60;;;;;;;12.07;89.87;101961.00;5094042;28;20030;-40
2022/05/21 06:13:19;;;;;;;82.00;25.60;;;;;;;12.15;89.77;101972.53;5095413;28;20020;-42
2022/05/21 06:15:44;;;;;;;76.53;25.60;;;;;;;12.17;89.07;101963.16;5094119;28;20058;-46
2022/05/21 06:18:16;;;;;;;85.05;25.55;;;;;;;12.26;89.25;101966.91;5095263;28;20020;-42
2022/05/21 06:20:42;;;;;;;79.10;26.05;;;;;;;12.31;88.43;101973.16;5094200;28;20043;-41
2022/05/21 06:23:08;;;;;;;80.85;26.15;;;;;;;12.36;88.32;101981.97;5094956;28;20390;-41
2022/05/21 06:25:34;;;;;;;73.43;26.13;;;;;;;12.39;88.27;101976.91;5095137;28;20059;-46
2022/05/21 06:27:59;;;;;;;76.97;25.05;;;;;;;12.43;87.87;101973.63;5094165;28;20375;-44
2022/05/21 06:30:27;;;;;;;68.80;24.17;;;;;;;12.47;88.11;101980.72;5095023;28;20487;-44
2022/05/21 06:32:53;;;;;;;70.35;25.00;;;;;;;12.46;87.12;101984.09;5094558;28;20467;-42
2022/05/21 06:35:19;;;;;;;66.25;24.05;;;;;;;12.47;87.26;101992.72;5093994;28;20115;-43
2022/05/21 06:37:45;;;;;;;80.32;28.85;;;;;;;12.46;88.14;101993.56;5094399;28;20125;-46
2022/05/21 06:40:12;;;;;;;86.18;26.98;;;;;;;12.48;88.29;101991.91;5094943;28;20024;-42
2022/05/21 06:42:38;;;;;;;73.05;28.35;;;;;;;12.55;88.35;101993.03;5093715;28;20115;-42
2022/05/21 06:45:04;;;;;;;79.10;29.60;;;;;;;12.59;87.88;101995.81;5094661;28;20091;-44
2022/05/21 06:47:29;;;;;;;77.28;28.75;;;;;;;12.62;87.12;101997.66;5094591;28;20372;-45
2022/05/21 06:49:56;;;;;;;72.28;27.48;;;;;;;12.71;85.97;102005.75;5093576;28;20020;-45
2022/05/21 06:52:24;;;;;;;81.93;28.17;;;;;;;12.81;85.93;102001.84;5094162;28;20044;-39
2022/05/21 06:54:49;;;;;;;79.45;26.75;;;;;;;12.92;85.36;102010.00;5094264;28;20141;-40
2022/05/21 06:57:14;;;;;;;77.97;26.58;;;;;;;13.10;85.54;102005.53;5093747;28;20527;-45
2022/05/21 06:59:40;;;;;;;71.68;25.80;;;;;;;13.31;84.41;102001.97;5094267;28;20032;-44
2022/05/21 07:02:05;;;;;;;62.22;24.98;;;;;;;13.38;83.05;102004.00;5094239;28;20024;-44
2022/05/21 07:07:34;;;;;;;62.35;23.60;;;;;;;13.74;83.80;102006.16;5094587;28;20167;-44
2022/05/21 07:10:10;;;;;;;59.95;23.17;;;;;;;13.85;81.44;102008.25;5093375;28;20032;-43
2022/05/21 07:12:36;;;;;;;73.43;24.23;;;;;;;13.92;80.17;102010.25;5094170;28;20124;-45
2022/05/21 07:15:04;;;;;;;74.55;24.15;;;;;;;13.85;80.45;102008.25;5093734;28;20115;-42
2022/05/21 07:17:29;;;;;;;;;;;;;;;13.89;80.75;102023.06;5093624;28;20119;-43
2022/05/21 07:19:55;;;;;;;68.72;23.65;;;;;;;13.67;80.39;102024.91;5093595;28;20410;-46
2022/05/21 07:22:21;;;;;;;65.78;22.35;;;;;;;13.61;80.61;102027.28;5093832;28;20030;-46
2022/05/21 07:24:46;;;;;;;66.70;22.92;;;;;;;13.61;81.51;102035.06;5092931;28;20020;-42
2022/05/21 07:27:12;;;;;;;70.43;22.15;;;;;;;13.57;80.86;102033.16;5093864;28;20028;-44
2022/05/21 07:29:39;;;;;;;66.22;22.08;;;;;;;13.58;81.36;102037.53;5093570;28;20050;-43
2022/05/21 07:32:05;;;;;;;73.53;23.40;;;;;;;13.48;81.17;102038.91;5092768;28;20062;-43
2022/05/21 07:34:31;;;;;;;66.57;24.52;;;;;;;13.46;81.92;102038.81;5093481;28;20039;-44
2022/05/21 07:36:56;;;;;;;76.13;22.63;;;;;;;13.46;81.69;102032.78;5093577;28;20020;-43
2022/05/21 07:39:21;;;;;;;62.72;21.33;;;;;;;13.49;81.26;102030.28;5092810;28;20074;-42
2022/05/21 07:41:46;;;;;;;75.30;22.17;;;;;;;13.43;81.07;102032.69;5093226;28;20060;-43
2022/05/21 07:44:12;;;;;;;60.33;21.55;;;;;;;13.39;81.77;102031.69;5093525;28;20144;-44
2022/05/21 07:46:37;;;;;;;56.03;20.75;;;;;;;13.45;80.51;102034.50;5092569;28;20034;-43
2022/05/21 07:49:02;;;;;;;59.83;20.55;;;;;;;13.49;80.86;102030.28;5093467;28;20032;-47
2022/05/21 07:51:27;;;;;;;60.67;21.33;;;;;;;13.63;80.45;102038.56;5093269;28;20036;-44
2022/05/21 07:53:53;;;;;;;56.78;21.38;;;;;;;13.75;80.33;102039.03;5092308;28;20063;-46
2022/05/21 07:56:18;;;;;;;62.40;21.00;;;;;;;13.88;79.27;102049.81;5093361;28;20073;-47
2022/05/21 07:58:44;;;;;;;54.40;19.92;;;;;;;13.95;78.22;102050.06;5092985;28;20487;-49
2022/05/21 08:01:11;;;;;;;62.08;19.77;;;;;;;13.97;77.83;102050.16;5092379;28;20024;-43
2022/05/21 08:03:37;;;;;;;;;;;;;;;14.14;78.35;102043.81;5093570;28;20477;-42
2022/05/21 08:06:03;;;;;;;61.33;18.35;;;;;;;14.32;77.59;102042.69;5092562;28;20431;-46
2022/05/21 08:08:28;;;;;;;61.33;18.65;;;;;;;14.29;76.63;102052.94;5093301;28;20043;-43
2022/05/21 08:10:53;;;;;;;69.88;21.05;;;;;;;14.31;76.70;102053.88;5092834;28;20028;-48
2022/05/21 08:13:19;;;;;;;65.68;21.83;;;;;;;14.21;76.58;102054.41;5092383;28;20164;-47
2022/05/21 08:15:44;;;;;;;65.22;22.85;;;;;;;14.28;76.94;102056.34;5092651;28;20031;-42
2022/05/21 08:18:10;;;;;;;56.30;22.02;;;;;;;14.56;77.13;102062.47;5093013;28;20031;-43
2022/05/21 08:20:37;;;;;;;56.58;20.65;;;;;;;14.66;76.18;102074.94;5092430;28;20032;-46
2022/05/21 08:28:32;;;;;;;47.95;17.02;;;;;;;14.89;73.70;102059.25;5092603;28;20075;-43
2022/05/21 08:30:58;;;;;;;57.53;16.15;;;;;;;14.89;71.70;102067.91;5092686;28;20394;-45
2022/05/21 08:33:23;;;;;;;42.70;14.63;;;;;;;14.81;72.00;102054.69;5093391;28;20036;-45
2022/05/21 08:35:50;;;;;;;53.17;16.60;;;;;;;14.95;72.61;102057.72;5096075;28;20379;-43
2022/05/21 08:38:16;;;;;;;53.35;17.55;;;;;;;14.98;72.46;102056.94;5097047;28;20036;-42
2022/05/21 08:41:04;;;;;;;56.88;17.58;;;;;;;14.86;71.59;102066.91;5096813;28;20020;-45
2022/05/21 08:43:44;;;;;;;48.70;17.90;;;;;;;14.75;72.60;102071.78;5096355;28;20068;-45
2022/05/21 08:46:35;;;;;;;52.55;17.58;;;;;;;14.95;73.07;102074.97;5097032;28;20077;-42
2022/05/21 08:49:14;;;;;;;52.92;17.08;;;;;;;15.18;71.76;102067.03;5095949;28;20039;-42
2022/05/21 08:51:49;;;;;;;39.65;15.20;;;;;;;15.34;71.00;102060.56;5096866;28;20074;-41
2022/05/21 08:54:18;;;;;;;42.53;15.98;;;;;;;15.32;69.74;102057.94;5096854;28;20152;-47
2022/05/21 08:56:44;;;;;;;45.17;15.57;;;;;;;15.44;69.50;102058.31;5095733;28;20020;-45
2022/05/21 08:59:09;;;;;;;49.40;16.48;;;;;;;15.61;69.77;102050.97;5096745;28;20035;-41
2022/05/21 09:01:39;;;;;;;46.03;15.32;;;;;;;15.82;68.05;102047.25;5096551;28;20019;-43
2022/05/21 09:04:05;;;;;;;46.80;15.13;;;;;;;15.79;67.23;102053.22;5096116;28;20024;-42
2022/05/21 09:06:47;;;;;;;45.33;16.83;;;;;;;15.75;68.41;102048.78;5096617;28;20024;-45
2022/05/21 09:09:17;;;;;;;39.88;15.15;;;;;;;15.70;66.91;102046.88;5096527;28;20085;-47
2022/05/21 09:11:46;;;;;;;49.92;17.20;;;;;;;15.56;68.12;102046.50;5095875;28;20040;-42
2022/05/21 09:14:35;;;;;;;51.78;18.55;;;;;;;15.40;67.97;102051.25;5096470;28;20111;-44
2022/05/21 09:17:02;;;;;;;47.67;18.05;;;;;;;15.41;68.32;102053.00;5095476;28;20020;-47
2022/05/21 09:19:32;;;;;;;51.78;18.95;;;;;;;15.50;68.08;102043.72;5096435;28;20024;-47
2022/05/21 09:22:04;;;;;;;47.25;18.30;;;;;;;15.73;68.28;102045.25;5096039;28;20122;-45
2022/05/21 09:24:39;;;;;;;45.20;13.52;;;;;;;16.02;67.02;102037.34;5095390;28;20483;-46
2022/05/21 09:27:20;;;;;;;39.42;10.13;;;;;;;16.17;64.71;102039.50;5096079;28;20447;-44
2022/05/21 09:29:46;;;;;;;30.67;10.18;;;;;;;16.62;65.39;102038.00;5095961;28;20098;-42
2022/05/21 09:32:31;;;;;;;33.75;10.50;;;;;;;16.97;64.45;102043.16;5095343;28;20146;-42
2022/05/21 09:35:14;;;;;;;38.58;11.45;;;;;;;17.28;63.21;102038.59;5095659;28;20080;-46
2022/05/21 09:37:41;;;;;;;37.65;13.50;;;;;;;17.22;62.86;102048.91;5095278;28;20036;-45
2022/05/21 09:40:34;;;;;;;36.83;14.77;;;;;;;16.98;61.95;102046.63;5095901;28;20072;-43
2022/05/21 09:45:46;;;;;;;41.63;15.18;;;;;;;16.57;63.46;102050.00;5094998;28;20438;-42
2022/05/21 09:48:11;;;;;;;46.58;15.23;;;;;;;16.64;64.84;102059.72;5095927;28;20021;-48
2022/05/21 09:50:56;;;;;;;46.88;16.67;;;;;;;16.98;65.09;102054.44;5096091;28;20028;-42
2022/05/21 09:53:39;;;;;;;48.83;17.52;;;;;;;17.39;62.80;102057.97;5094745;28;20050;-46
2022/05/21 09:56:20;;;;;;;49.90;16.75;;;;;;;17.38;62.79;102058.81;5095269;28;20533;-45
2022/05/21 09:58:47;;;;;;;49.40;14.45;;;;;;;17.28;60.64;102054.25;5094678;28;20032;-47
2022/05/21 10:01:31;;;;;;;41.67;13.68;;;;;;;17.10;61.49;102054.72;5095634;28;20023;-48
2022/05/21 10:04:00;;;;;;;44.42;13.50;;;;;;;16.65;62.26;102055.41;5095106;28;20393;-46
2022/05/21 10:06:34;;;;;;;41.97;13.70;;;;;;;16.24;63.28;102063.94;5094877;28;20038;-47
2022/05/21 10:12:27;;;;;;;42.38;14.32;;;;;;;15.79;66.36;102061.00;5095556;28;20043;-42
2022/05/21 10:15:02;;;;;;;44.95;13.35;;;;;;;15.78;65.84;102067.03;5094352;28;20035;-42
2022/05/21 10:17:39;;;;;;;45.22;12.30;;;;;;;16.31;66.23;102065.88;5095397;28;20020;-43
2022/05/21 10:20:20;;;;;;;38.70;12.38;;;;;;;16.91;63.67;102063.84;5094449;28;20024;-44
2022/05/21 10:22:53;;;;;;;39.88;11.75;;;;;;;17.29;62.61;102061.22;5094710;28;20390;-42
2022/05/21 10:25:22;;;;;;;40.20;12.35;;;;;;;17.48;61.92;102058.97;5095259;28;20028;-47
2022/05/21 10:28:05;;;;;;;31.95;11.63;;;;;;;17.45;61.58;102062.41;5094163;28;20039;-43
2022/05/21 10:30:52;;;;;;;35.70;11.23;;;;;;;17.00;60.00;102057.97;5094989;28;20032;-45
2022/05/21 10:33:43;;;;;;;31.42;11.50;;;;;;;16.46;61.87;102070.56;5094841;28;20024;-47
2022/05/21 10:36:12;;;;;;;34.60;10.43;;;;;;;15.96;62.93;102063.22;5094802;28;20111;-46
2022/05/21 10:39:01;;;;;;;30.40;11.05;;;;;;;15.74;64.72;102075.59;5094578;28;20467;-44
2022/05/21 10:42:04;;;;;;;43.38;12.77;;;;;;;15.59;65.86;102070.84;5090651;28;20032;-44
2022/05/21 10:44:52;;;;;;;44.13;12.50;;;;;;;15.74;66.87;102075.59;5094794;28;20031;-43
2022/05/21 10:47:48;;;;;;;39.85;12.90;;;;;;;16.55;65.01;102075.09;5094703;28;20099;-43
2022/05/21 10:50:24;;;;;;;39.17;12.77;;;;;;;17.71;62.68;102078.56;5094796;28;20020;-43
2022/05/21 10:53:16;;;;;;;41.42;12.07;;;;;;;19.14;59.60;102071.44;5094243;28;20059;-49
2022/05/21 10:56:14;;;;;;;35.70;14.00;;;;;;;19.38;57.35;102068.25;5093470;28;20115;-43
2022/05/21 10:58:52;;;;;;;41.05;12.25;;;;;;;18.70;56.51;102067.28;5094504;28;20031;-42
2022/05/21 11:01:49;;;;;;;28.23;11.07;;;;;;;18.01;58.45;102074.84;5094521;28;20032;-43
2022/05/21 11:04:53;;;;;;;29.77;11.07;;;;;;;17.63;59.95;102071.47;5093779;28;20039;-46
2022/05/21 11:07:31;;;;;;;30.15;10.40;;;;;;;17.63;61.40;102079.28;5094343;28;20040;-43
2022/05/21 11:09:56;;;;;;;;;;;;;;;17.98;57.41;102068.69;5093754;28;20031;-45
2022/05/21 11:12:31;;;;;;;21.90;5.93;;;;;;;18.70;54.55;102080.34;5094034;28;19999;-47
2022/05/21 11:15:05;;;;;;;31.88;7.53;;;;;;;18.81;54.41;102087.47;5093620;28;20028;-45
2022/05/21 11:17:51;;;;;;;30.30;7.25;;;;;;;18.80;55.71;102086.59;5093432;28;20032;-45
2022/05/21 11:20:22;;;;;;;34.90;7.15;;;;;;;18.90;54.54;102087.63;5094181;28;20028;-45
2022/05/21 11:23:13;;;;;;;30.77;7.40;;;;;;;18.89;56.03;102086.75;5093783;28;20115;-45
2022/05/21 11:25:52;;;;;;;23.95;7.00;;;;;;;18.91;55.06;102081.56;5093853;28;20058;-45
2022/05/21 11:28:45;;;;;;;25.83;6.90;;;;;;;19.14;53.91;102083.63;5094046;28;20027;-43
2022/05/21 11:37:23;;;;;;;24.17;7.90;;;;;;;19.95;50.03;102085.47;5093357;28;20038;-44
2022/05/21 11:39:50;;;;;;;30.50;8.48;;;;;;;19.29;51.81;102077.72;5093462;28;20035;-45
2022/05/21 11:42:22;;;;;;;29.95;7.85;;;;;;;18.73;54.08;102083.00;5093835;28;20103;-45
2022/05/21 11:44:57;;;;;;;24.42;8.07;;;;;;;18.22;54.87;102084.78;5092740;28;20032;-47
2022/05/21 11:47:22;;;;;;;25.45;7.50;;;;;;;17.87;56.73;102076.25;5093679;28;20020;-45